Mexican Water, Arizona
Current Conditions -  °F | °C
As of 7:53 PM on Monday 22 Dec 2014 (Local Time) from KCEZ Reporting Station
Overcast Overcast  
Wind Chill: 26°   Ceiling: 5000
Heat Index: 36°   Visibility: 10mi
Dew Point: 27°   Wind: 18mph
Humidity: 70%   Direction: 360°N
Pressure: 29.86"   Gusts: 29mph
Location:  36.7518°N, 109.365°W
Report Text: KCEZ 230253Z AUTO 36016G25KT 10SM BKN050 OVC065 02/M03 A2986 RMK AO2 PK WND 33030/0231 SLP103 T00221028 53021
Loading
Personal Weather Stations






























Interactive Weather Map New forecast layout! Learn more

10-Day Weather Forecast

Advertisements
Track Severe Weather on mobile